createdAt,value
2022-10-01T00:00:05.456Z,73.27
2022-10-01T00:02:38.308Z,73.81
2022-10-01T00:05:06.969Z,74.61
2022-10-01T00:07:40.980Z,74.35
2022-10-01T00:10:08.704Z,75.23
2022-10-01T00:12:35.326Z,76.24
2022-10-01T00:15:05.894Z,76.98
2022-10-01T00:17:33.840Z,78.04
2022-10-01T00:20:00.639Z,78.36
2022-10-01T00:22:27.193Z,79.04
2022-10-01T00:24:53.905Z,80.04
2022-10-01T00:27:20.533Z,80.71
2022-10-01T00:29:47.151Z,81.27
2022-10-01T00:32:14.370Z,82.13
2022-10-01T00:34:40.952Z,83.09
2022-10-01T00:37:10.303Z,83.06
2022-10-01T00:39:37.250Z,84.53
2022-10-01T00:42:05.338Z,85.15
2022-10-01T00:44:35.186Z,85.40
2022-10-01T00:47:16.940Z,85.78
2022-10-01T00:49:43.880Z,86.26
2022-10-01T00:52:14.512Z,86.82
2022-10-01T00:54:46.031Z,87.85
2022-10-01T00:57:15.146Z,88.09
2022-10-01T00:59:41.829Z,88.70
2022-10-01T01:02:08.584Z,89.23
2022-10-01T01:04:35.149Z,89.19
2022-10-01T01:07:03.380Z,90.02
2022-10-01T01:09:31.815Z,89.37
2022-10-01T01:12:07.809Z,90.49
2022-10-01T01:15:04.722Z,90.38
2022-10-01T01:17:46.539Z,90.88
2022-10-01T01:20:31.515Z,91.09
2022-10-01T01:23:08.691Z,91.64
2022-10-01T01:25:47.207Z,91.94
2022-10-01T01:28:16.871Z,92.03
2022-10-01T01:30:44.351Z,92.73
2022-10-01T01:33:13.212Z,92.59
2022-10-01T01:35:44.107Z,92.92
2022-10-01T01:38:17.533Z,92.71
2022-10-01T01:40:46.292Z,93.52
2022-10-01T01:43:20.498Z,93.90
2022-10-01T01:45:52.407Z,94.35
2022-10-01T01:48:19.025Z,94.42
2022-10-01T01:50:58.077Z,94.52
2022-10-01T01:53:25.885Z,94.61
2022-10-01T01:55:53.189Z,94.97
2022-10-01T01:58:20.337Z,95.64
2022-10-01T02:00:52.359Z,95.77
2022-10-01T02:03:26.156Z,95.94
2022-10-01T02:06:17.584Z,96.14
2022-10-01T02:08:52.113Z,96.57
2022-10-01T02:11:33.448Z,96.48
2022-10-01T02:14:32.683Z,95.44
2022-10-01T02:17:10.988Z,94.71
2022-10-01T02:20:15.574Z,95.42
2022-10-01T02:22:44.014Z,96.37
2022-10-01T02:25:11.334Z,96.52
2022-10-01T02:27:50.850Z,96.43
2022-10-01T02:30:17.709Z,97.30
2022-10-01T02:32:45.547Z,97.40
2022-10-01T02:35:15.533Z,97.74
2022-10-01T02:37:44.345Z,98.61
2022-10-01T02:40:15.836Z,99.59
2022-10-01T02:42:48.227Z,99.21
2022-10-01T02:45:16.758Z,100.00
2022-10-01T02:47:47.788Z,100.00
2022-10-01T02:50:15.733Z,100.00
2022-10-01T02:52:59.254Z,100.00
2022-10-01T02:55:28.784Z,100.00
2022-10-01T02:57:56.234Z,100.00
2022-10-01T03:00:23.161Z,100.00
2022-10-01T03:02:50.426Z,100.00
2022-10-01T03:05:17.720Z,100.00
2022-10-01T03:07:44.324Z,100.00
2022-10-01T03:10:11.821Z,100.00
2022-10-01T03:12:45.103Z,100.00
2022-10-01T03:15:13.191Z,100.00
2022-10-01T03:17:39.774Z,100.00
2022-10-01T03:20:07.213Z,100.00
2022-10-01T03:22:33.953Z,100.00
2022-10-01T03:25:00.710Z,100.00
2022-10-01T03:27:27.268Z,100.00
2022-10-01T03:29:53.842Z,100.00
2022-10-01T03:32:20.539Z,100.00
2022-10-01T03:34:47.335Z,100.00
2022-10-01T03:37:13.993Z,100.00
2022-10-01T03:39:40.571Z,100.00
2022-10-01T03:42:07.148Z,100.00
2022-10-01T03:44:34.054Z,100.00
2022-10-01T03:47:00.800Z,100.00
2022-10-01T03:49:27.967Z,100.00
2022-10-01T03:51:54.628Z,100.00
2022-10-01T03:54:21.506Z,100.00
2022-10-01T03:56:48.907Z,100.00
2022-10-01T03:59:15.894Z,100.00
2022-10-01T04:01:42.607Z,100.00
2022-10-01T04:04:19.503Z,100.00
2022-10-01T04:07:11.669Z,100.00
2022-10-01T04:09:38.723Z,100.00
2022-10-01T04:12:05.819Z,100.00
2022-10-01T04:14:32.469Z,100.00
2022-10-01T04:16:59.563Z,100.00
2022-10-01T04:19:26.172Z,100.00
2022-10-01T04:21:52.761Z,100.00
2022-10-01T04:24:19.307Z,100.00
2022-10-01T04:26:45.903Z,100.00
2022-10-01T04:29:12.680Z,100.00
2022-10-01T04:31:39.988Z,100.00
2022-10-01T04:34:06.635Z,100.00
2022-10-01T04:36:33.184Z,100.00
2022-10-01T04:39:02.422Z,100.00
2022-10-01T04:41:31.147Z,100.00
2022-10-01T04:44:01.349Z,100.00
2022-10-01T04:46:31.369Z,100.00
2022-10-01T04:48:58.089Z,100.00
2022-10-01T04:51:24.689Z,100.00
2022-10-01T04:53:51.276Z,100.00
2022-10-01T04:56:17.883Z,100.00
2022-10-01T04:58:44.473Z,100.00
2022-10-01T05:01:11.107Z,100.00
2022-10-01T05:03:37.752Z,100.00
2022-10-01T05:06:04.469Z,100.00
2022-10-01T05:08:31.215Z,100.00
2022-10-01T05:10:59.661Z,100.00
2022-10-01T05:13:29.949Z,100.00
2022-10-01T05:15:56.714Z,100.00
2022-10-01T05:18:23.290Z,100.00
2022-10-01T05:20:49.861Z,100.00
2022-10-01T05:23:16.448Z,100.00
2022-10-01T05:25:47.063Z,100.00
2022-10-01T05:28:17.235Z,100.00
2022-10-01T05:30:47.850Z,100.00
2022-10-01T05:33:14.454Z,100.00
2022-10-01T05:35:41.359Z,100.00
2022-10-01T05:38:08.111Z,100.00
2022-10-01T05:40:34.761Z,100.00
2022-10-01T05:43:03.111Z,100.00
2022-10-01T05:45:30.856Z,100.00
2022-10-01T05:47:58.533Z,100.00
2022-10-01T05:50:25.471Z,100.00
2022-10-01T05:52:54.650Z,100.00
2022-10-01T05:55:21.974Z,100.00
2022-10-01T05:57:56.331Z,100.00
2022-10-01T06:00:23.063Z,100.00
2022-10-01T06:02:53.196Z,100.00
2022-10-01T06:05:21.043Z,100.00
2022-10-01T06:07:48.412Z,100.00
2022-10-01T06:10:15.246Z,100.00
2022-10-01T06:12:43.429Z,100.00
2022-10-01T06:15:10.844Z,100.00
2022-10-01T06:17:43.742Z,100.00
2022-10-01T06:20:15.411Z,100.00
2022-10-01T06:22:43.766Z,100.00
2022-10-01T06:25:11.945Z,100.00
2022-10-01T06:27:39.096Z,100.00
2022-10-01T06:30:06.627Z,100.00
2022-10-01T06:32:35.054Z,100.00
2022-10-01T06:35:02.625Z,100.00
2022-10-01T06:37:29.658Z,100.00
2022-10-01T06:39:56.360Z,100.00
2022-10-01T06:42:23.041Z,100.00
2022-10-01T06:44:52.696Z,100.00
2022-10-01T06:47:19.349Z,100.00
2022-10-01T06:49:47.811Z,100.00
2022-10-01T06:52:33.307Z,100.00
2022-10-01T06:55:01.558Z,100.00
2022-10-01T06:57:28.868Z,100.00
2022-10-01T06:59:55.803Z,100.00
2022-10-01T07:02:30.366Z,100.00
2022-10-01T07:04:59.853Z,100.00
2022-10-01T07:07:35.322Z,100.00
2022-10-01T07:10:02.831Z,100.00
2022-10-01T07:12:29.493Z,100.00
2022-10-01T07:14:56.172Z,100.00
2022-10-01T07:17:23.019Z,100.00
2022-10-01T07:19:49.716Z,100.00
2022-10-01T07:22:18.161Z,100.00
2022-10-01T07:24:46.045Z,100.00
2022-10-01T07:27:13.736Z,100.00
2022-10-01T07:29:41.710Z,100.00
2022-10-01T07:32:10.326Z,100.00
2022-10-01T07:34:40.254Z,100.00
2022-10-01T07:37:07.463Z,100.00
2022-10-01T07:39:34.340Z,100.00
2022-10-01T07:42:00.991Z,100.00
2022-10-01T07:44:29.341Z,100.00
2022-10-01T07:46:56.756Z,100.00
2022-10-01T07:49:26.831Z,100.00
2022-10-01T07:51:59.110Z,100.00
2022-10-01T07:54:26.224Z,100.00
2022-10-01T07:56:55.839Z,100.00
2022-10-01T07:59:23.367Z,100.00
2022-10-01T08:01:52.995Z,100.00
2022-10-01T08:04:39.190Z,100.00
2022-10-01T08:07:07.450Z,100.00
2022-10-01T08:09:34.657Z,100.00
2022-10-01T08:12:02.762Z,100.00
2022-10-01T08:14:30.311Z,100.00
2022-10-01T08:16:57.360Z,100.00
2022-10-01T08:19:24.690Z,99.80
2022-10-01T08:21:51.386Z,99.67
2022-10-01T08:24:18.085Z,100.00
2022-10-01T08:26:44.846Z,99.83
2022-10-01T08:29:16.234Z,99.42
2022-10-01T08:31:43.666Z,99.16
2022-10-01T08:34:10.410Z,98.59
2022-10-01T08:36:37.869Z,99.00
2022-10-01T08:39:04.664Z,99.59
2022-10-01T08:41:53.063Z,99.98
2022-10-01T08:44:30.366Z,99.76
2022-10-01T08:47:05.692Z,99.99
2022-10-01T08:49:40.850Z,99.86
2022-10-01T08:52:26.609Z,99.50
2022-10-01T08:55:13.723Z,100.00
2022-10-01T08:57:47.056Z,100.00
2022-10-01T09:00:16.639Z,100.00
2022-10-01T09:02:46.033Z,100.00
2022-10-01T09:05:33.053Z,100.00
2022-10-01T09:08:22.748Z,100.00
2022-10-01T09:11:05.871Z,100.00
2022-10-01T09:13:51.917Z,100.00
2022-10-01T09:16:47.757Z,100.00
2022-10-01T09:19:31.645Z,100.00
2022-10-01T09:22:02.132Z,100.00
2022-10-01T09:24:28.751Z,100.00
2022-10-01T09:26:55.457Z,100.00
2022-10-01T09:29:33.009Z,100.00
2022-10-01T09:32:04.112Z,100.00
2022-10-01T09:34:35.494Z,100.00
2022-10-01T09:37:21.563Z,100.00
2022-10-01T09:40:48.824Z,100.00
2022-10-01T09:43:20.342Z,100.00
2022-10-01T09:45:47.480Z,100.00
2022-10-01T09:48:19.770Z,100.00
2022-10-01T09:50:54.522Z,100.00
2022-10-01T09:53:26.565Z,100.00
2022-10-01T09:55:57.523Z,100.00
2022-10-01T09:58:26.758Z,100.00
2022-10-01T10:01:18.062Z,100.00
2022-10-01T10:03:54.172Z,100.00
2022-10-01T10:06:28.052Z,100.00
2022-10-01T10:08:56.228Z,100.00
2022-10-01T10:11:25.641Z,100.00
2022-10-01T10:13:54.858Z,100.00
2022-10-01T10:16:30.648Z,99.64
2022-10-01T10:19:00.630Z,99.01
2022-10-01T10:21:29.641Z,97.57
2022-10-01T10:24:01.729Z,96.25
2022-10-01T10:26:51.641Z,94.65
2022-10-01T10:29:27.700Z,94.17
2022-10-01T10:31:57.730Z,94.61
2022-10-01T10:34:39.665Z,95.43
2022-10-01T10:37:13.849Z,95.78
2022-10-01T10:39:52.713Z,96.53
2022-10-01T10:42:19.912Z,96.47
2022-10-01T10:44:57.098Z,96.63
2022-10-01T10:47:29.167Z,97.23
2022-10-01T10:50:01.054Z,96.56
2022-10-01T10:52:30.036Z,96.56
2022-10-01T10:55:01.505Z,96.66
2022-10-01T10:57:33.523Z,96.87
2022-10-01T11:00:13.231Z,95.14
2022-10-01T11:02:41.856Z,94.36
2022-10-01T11:05:20.549Z,92.51
2022-10-01T11:07:48.285Z,91.27
2022-10-01T11:10:22.972Z,89.60
2022-10-01T11:13:07.945Z,89.12
2022-10-01T11:15:59.679Z,87.75
2022-10-01T11:18:55.985Z,84.82
2022-10-01T11:21:38.019Z,84.64
2022-10-01T11:24:07.914Z,82.69
2022-10-01T11:27:06.776Z,81.15
2022-10-01T11:29:50.619Z,78.91
2022-10-01T11:32:38.600Z,79.10
2022-10-01T11:35:42.696Z,79.13
2022-10-01T11:38:29.460Z,79.49
2022-10-01T11:41:04.540Z,80.74
2022-10-01T11:43:35.062Z,79.81
2022-10-01T11:46:27.628Z,81.15
2022-10-01T11:49:05.691Z,81.68
2022-10-01T11:51:39.834Z,80.98
2022-10-01T11:54:11.830Z,81.48
2022-10-01T11:57:02.108Z,81.22
2022-10-01T11:59:43.828Z,80.62
2022-10-01T12:02:15.394Z,79.03
2022-10-01T12:04:43.379Z,77.67
2022-10-01T12:07:20.330Z,78.03
2022-10-01T12:09:52.696Z,77.60
2022-10-01T12:12:23.113Z,78.95
2022-10-01T12:15:00.682Z,78.89
2022-10-01T12:17:53.476Z,78.50
2022-10-01T12:20:35.405Z,74.72
2022-10-01T12:23:05.636Z,75.02
2022-10-01T12:26:10.524Z,73.88
2022-10-01T12:29:00.486Z,74.97
2022-10-01T12:31:56.771Z,75.38
2022-10-01T12:34:33.530Z,75.54
2022-10-01T12:37:33.210Z,76.44
2022-10-01T12:40:09.036Z,76.49
2022-10-01T12:43:04.473Z,76.66
2022-10-01T12:46:08.304Z,75.80
2022-10-01T12:49:04.023Z,76.63
2022-10-01T12:51:53.127Z,76.97
2022-10-01T12:54:48.495Z,77.02
2022-10-01T12:57:28.957Z,76.50
2022-10-01T13:00:13.883Z,80.19
2022-10-01T13:03:02.298Z,83.36
2022-10-01T13:05:31.982Z,85.20
2022-10-01T13:08:16.517Z,85.47
2022-10-01T13:11:03.351Z,84.56
2022-10-01T13:13:32.929Z,86.84
2022-10-01T13:16:13.259Z,88.09
2022-10-01T13:19:04.225Z,89.12
2022-10-01T13:21:39.939Z,88.96
2022-10-01T13:24:22.485Z,88.05
2022-10-01T13:27:07.692Z,86.34
2022-10-01T13:30:03.696Z,86.04
2022-10-01T13:32:53.306Z,87.70
2022-10-01T13:35:35.601Z,82.70
2022-10-01T13:38:38.340Z,83.47
2022-10-01T13:41:07.536Z,82.97
2022-10-01T13:43:35.025Z,82.89
2022-10-01T13:46:07.163Z,83.29
2022-10-01T13:48:35.192Z,81.84
2022-10-01T13:51:06.357Z,81.03
2022-10-01T13:53:36.545Z,81.45
2022-10-01T13:56:04.077Z,81.40
2022-10-01T13:58:38.272Z,81.95
2022-10-01T14:01:25.274Z,81.04
2022-10-01T14:04:09.269Z,81.95
2022-10-01T14:06:36.310Z,81.01
2022-10-01T14:09:26.406Z,81.89
2022-10-01T14:12:19.716Z,83.16
2022-10-01T14:15:15.589Z,84.51
2022-10-01T14:17:43.942Z,83.95
2022-10-01T14:20:27.494Z,83.51
2022-10-01T14:23:12.259Z,84.48
2022-10-01T14:25:52.766Z,83.57
2022-10-01T14:29:05.755Z,83.26
2022-10-01T14:31:50.128Z,83.23
2022-10-01T14:34:26.955Z,82.99
2022-10-01T14:36:54.431Z,82.03
2022-10-01T14:39:28.857Z,81.45
2022-10-01T14:41:57.330Z,81.21
2022-10-01T14:44:29.310Z,82.34
2022-10-01T14:46:58.544Z,82.01
2022-10-01T14:49:30.280Z,80.99
2022-10-01T14:52:03.088Z,79.82
2022-10-01T14:54:31.749Z,78.41
2022-10-01T14:56:58.543Z,78.16
2022-10-01T14:59:38.067Z,76.34
2022-10-01T15:02:18.654Z,75.68
2022-10-01T15:04:50.593Z,74.68
2022-10-01T15:07:21.068Z,75.05
2022-10-01T15:09:49.116Z,73.87
2022-10-01T15:12:17.444Z,73.89
2022-10-01T15:14:45.028Z,73.36
2022-10-01T15:17:29.747Z,72.30
2022-10-01T15:19:58.562Z,72.25
2022-10-01T15:22:28.445Z,71.81
2022-10-01T15:24:59.655Z,71.53
2022-10-01T15:27:26.691Z,71.26
2022-10-01T15:29:56.820Z,71.33
2022-10-01T15:32:24.487Z,71.88
2022-10-01T15:34:54.120Z,71.89
2022-10-01T15:37:34.647Z,71.42
2022-10-01T15:40:02.016Z,71.41
2022-10-01T15:42:32.893Z,70.86
2022-10-01T15:45:08.754Z,71.23
2022-10-01T15:47:37.505Z,71.42
2022-10-01T15:50:10.660Z,71.02
2022-10-01T15:53:01.896Z,70.70
2022-10-01T15:55:49.534Z,69.86
2022-10-01T15:58:20.993Z,69.90
2022-10-01T16:00:47.626Z,70.58
2022-10-01T16:03:35.076Z,69.91
2022-10-01T16:06:03.851Z,69.62
2022-10-01T16:08:51.552Z,69.77
2022-10-01T16:11:19.635Z,69.60
2022-10-01T16:13:49.013Z,69.74
2022-10-01T16:16:24.631Z,69.75
2022-10-01T16:19:29.595Z,69.86
2022-10-01T16:22:19.751Z,70.49
2022-10-01T16:24:55.423Z,71.19
2022-10-01T16:27:24.853Z,71.73
2022-10-01T16:30:09.729Z,72.33
2022-10-01T16:32:36.634Z,73.10
2022-10-01T16:35:20.732Z,72.95
2022-10-01T16:37:50.111Z,73.07
2022-10-01T16:40:18.553Z,73.36
2022-10-01T16:42:45.940Z,73.09
2022-10-01T16:45:17.913Z,72.92
2022-10-01T16:47:45.470Z,73.26
2022-10-01T16:50:16.890Z,73.41
2022-10-01T16:52:43.778Z,74.47
2022-10-01T16:55:20.436Z,74.08
2022-10-01T16:57:48.648Z,73.73
2022-10-01T17:00:17.333Z,74.15
2022-10-01T17:03:03.908Z,74.52
2022-10-01T17:05:32.598Z,75.70
2022-10-01T17:08:00.897Z,75.81
2022-10-01T17:10:32.623Z,76.36
2022-10-01T17:12:59.655Z,75.22
2022-10-01T17:15:28.094Z,75.52
2022-10-01T17:17:55.920Z,76.11
2022-10-01T17:20:25.072Z,75.18
2022-10-01T17:22:52.278Z,75.29
2022-10-01T17:25:31.909Z,75.94
2022-10-01T17:27:59.727Z,75.07
2022-10-01T17:30:29.104Z,75.01
2022-10-01T17:32:56.873Z,77.45
2022-10-01T17:35:24.347Z,78.52
2022-10-01T17:37:51.276Z,75.77
2022-10-01T17:40:20.556Z,75.60
2022-10-01T17:42:50.041Z,74.20
2022-10-01T17:48:34.095Z,74.49
2022-10-01T17:51:06.133Z,73.43
2022-10-01T17:53:49.190Z,73.94
2022-10-01T17:56:19.963Z,77.05
2022-10-01T17:58:47.463Z,75.92
2022-10-01T18:01:17.506Z,75.51
2022-10-01T18:03:44.379Z,74.83
2022-10-01T18:06:15.204Z,73.50
2022-10-01T18:08:56.795Z,73.66
2022-10-01T18:11:25.833Z,74.91
2022-10-01T18:13:53.363Z,75.35
2022-10-01T18:16:31.911Z,76.12
2022-10-01T18:21:47.450Z,76.39
2022-10-01T18:24:18.236Z,77.21
2022-10-01T18:26:46.111Z,76.45
2022-10-01T18:29:22.138Z,76.67
2022-10-01T18:32:14.434Z,76.14
2022-10-01T18:34:57.753Z,76.17
2022-10-01T18:37:39.030Z,76.30
2022-10-01T18:40:15.728Z,75.96
2022-10-01T18:50:35.872Z,76.71
2022-10-01T18:53:30.358Z,76.98
2022-10-01T18:56:18.715Z,76.70
2022-10-01T18:58:48.321Z,76.52
2022-10-01T19:05:49.283Z,77.21
2022-10-01T19:21:30.759Z,78.55
2022-10-01T19:24:24.925Z,78.06
2022-10-01T19:26:57.728Z,78.73
2022-10-01T19:29:55.022Z,79.02
2022-10-01T19:32:24.914Z,79.42
2022-10-01T19:35:13.350Z,79.92
2022-10-01T19:37:54.030Z,80.10
2022-10-01T19:40:35.797Z,81.45
2022-10-01T19:43:18.783Z,80.80
2022-10-01T19:45:55.062Z,80.72
2022-10-01T19:48:51.310Z,81.18
2022-10-01T19:51:21.379Z,81.60
2022-10-01T19:53:51.908Z,81.85
2022-10-01T19:56:24.417Z,81.91
2022-10-01T19:58:51.119Z,82.07
2022-10-01T20:01:30.579Z,82.08
2022-10-01T20:04:06.604Z,82.83
2022-10-01T20:06:39.066Z,82.90
2022-10-01T20:09:29.011Z,82.90
2022-10-01T20:12:07.113Z,83.72
2022-10-01T20:15:15.826Z,83.54
2022-10-01T20:17:58.470Z,84.04
2022-10-01T20:20:40.480Z,83.89
2022-10-01T20:23:26.040Z,83.90
2022-10-01T20:26:11.029Z,85.72
2022-10-01T20:28:40.852Z,85.71
2022-10-01T20:31:23.192Z,85.35
2022-10-01T20:37:41.988Z,84.97
2022-10-01T20:40:25.235Z,85.22
2022-10-01T20:43:00.462Z,83.92
2022-10-01T20:45:29.106Z,84.13
2022-10-01T20:48:11.738Z,84.24
2022-10-01T20:50:44.685Z,84.53
2022-10-01T20:53:38.760Z,84.46
2022-10-01T20:56:13.020Z,85.18
2022-10-01T20:58:47.508Z,85.55
2022-10-01T21:01:24.075Z,86.24
2022-10-01T21:04:16.580Z,85.72
2022-10-01T21:06:52.133Z,85.90
2022-10-01T21:09:26.148Z,87.15
2022-10-01T21:12:00.421Z,86.68
2022-10-01T21:14:36.688Z,86.96
2022-10-01T21:17:20.591Z,87.11
2022-10-01T21:20:25.601Z,87.19
2022-10-01T21:23:06.337Z,87.41
2022-10-01T21:26:05.541Z,87.53
2022-10-01T21:29:03.435Z,87.48
2022-10-01T21:31:54.592Z,87.52
2022-10-01T21:34:46.374Z,88.56
2022-10-01T21:37:39.528Z,88.00
2022-10-01T21:40:15.280Z,87.83
2022-10-01T21:42:53.086Z,88.01
2022-10-01T21:45:27.166Z,88.60
2022-10-01T21:48:00.908Z,88.48
2022-10-01T21:50:51.344Z,88.38
2022-10-01T21:53:55.947Z,88.97
2022-10-01T21:56:47.261Z,89.43
2022-10-01T21:59:32.662Z,89.16
2022-10-01T22:02:39.990Z,89.63
2022-10-01T22:05:23.309Z,90.01
2022-10-01T22:07:56.760Z,89.30
2022-10-01T22:10:37.635Z,89.58
2022-10-01T22:13:09.654Z,88.80
2022-10-01T22:15:39.910Z,89.11
2022-10-01T22:18:10.649Z,89.43
2022-10-01T22:20:39.388Z,89.34
2022-10-01T22:23:09.619Z,89.16
2022-10-01T22:25:41.469Z,88.90
2022-10-01T22:28:14.635Z,88.69
2022-10-01T22:30:42.466Z,88.82
2022-10-01T22:33:16.501Z,89.14
2022-10-01T22:35:49.025Z,87.77
2022-10-01T22:38:23.392Z,88.48
2022-10-01T22:40:55.441Z,88.48
2022-10-01T22:43:22.075Z,89.11
2022-10-01T22:46:07.895Z,89.25
2022-10-01T22:48:56.614Z,89.03
2022-10-01T22:51:50.034Z,88.77
2022-10-01T22:54:29.492Z,88.68
2022-10-01T22:57:03.136Z,89.42
2022-10-01T22:59:44.410Z,89.19
2022-10-01T23:02:29.506Z,89.24
2022-10-01T23:05:22.649Z,90.24
2022-10-01T23:08:14.294Z,90.22
2022-10-01T23:11:08.525Z,90.34
2022-10-01T23:14:12.796Z,91.46
2022-10-01T23:16:51.735Z,92.14
2022-10-01T23:19:18.412Z,92.19
2022-10-01T23:21:56.788Z,92.74
2022-10-01T23:24:33.150Z,93.50
2022-10-01T23:27:31.683Z,93.74
2022-10-01T23:30:07.519Z,94.40
2022-10-01T23:32:56.177Z,94.55
2022-10-01T23:35:49.020Z,95.46
2022-10-01T23:38:19.320Z,96.83
2022-10-01T23:40:48.165Z,96.99
2022-10-01T23:43:35.023Z,97.76
2022-10-01T23:46:26.401Z,97.51
2022-10-01T23:49:00.091Z,98.05
2022-10-01T23:51:31.157Z,97.97
2022-10-01T23:54:03.252Z,97.99
2022-10-01T23:56:49.530Z,99.06
2022-10-01T23:59:25.222Z,98.76
